createdAt,value
2024-03-12T00:01:24.220Z,7.25
2024-03-12T00:03:56.501Z,7.63
2024-03-12T00:06:29.506Z,6.57
2024-03-12T00:08:59.382Z,6.72
2024-03-12T00:11:26.926Z,6.55
2024-03-12T00:13:57.823Z,6.43
2024-03-12T00:16:28.850Z,6.03
2024-03-12T00:19:01.753Z,7.15
2024-03-12T00:21:37.293Z,7.13
2024-03-12T00:24:08.004Z,5.93
2024-03-12T00:26:37.844Z,6.18
2024-03-12T00:29:08.706Z,6.15
2024-03-12T00:31:39.917Z,6.05
2024-03-12T00:34:12.075Z,6.95
2024-03-12T00:36:45.684Z,6.68
2024-03-12T00:39:17.177Z,5.97
2024-03-12T00:41:47.089Z,6.15
2024-03-12T00:44:17.227Z,7.18
2024-03-12T00:46:48.985Z,6.50
2024-03-12T00:49:18.777Z,6.00
2024-03-12T00:51:51.477Z,6.40
2024-03-12T00:54:21.589Z,6.15
2024-03-12T00:56:51.669Z,6.10
2024-03-12T00:59:22.005Z,6.70
2024-03-12T01:01:52.075Z,7.05
2024-03-12T01:04:23.402Z,7.15
2024-03-12T01:06:56.506Z,5.85
2024-03-12T01:09:28.785Z,6.07
2024-03-12T01:11:58.689Z,5.57
2024-03-12T01:14:28.777Z,6.18
2024-03-12T01:16:58.581Z,5.63
2024-03-12T01:19:28.814Z,6.85
2024-03-12T01:22:01.298Z,6.85
2024-03-12T01:24:31.451Z,6.68
2024-03-12T01:27:01.818Z,6.72
2024-03-12T01:29:34.601Z,6.18
2024-03-12T01:32:08.400Z,6.15
2024-03-12T01:34:44.560Z,6.32
2024-03-12T01:37:17.672Z,6.05
2024-03-12T01:39:53.772Z,6.38
2024-03-12T01:42:24.916Z,5.75
2024-03-12T01:44:56.458Z,6.30
2024-03-12T01:47:26.521Z,6.97
2024-03-12T01:49:56.356Z,6.30
2024-03-12T01:52:30.642Z,6.53
2024-03-12T01:55:00.647Z,7.13
2024-03-12T01:57:31.003Z,6.65
2024-03-12T02:00:02.107Z,7.93
2024-03-12T02:02:41.973Z,5.95
2024-03-12T02:05:12.321Z,6.65
2024-03-12T02:07:47.087Z,6.72
2024-03-12T02:10:17.839Z,6.80
2024-03-12T02:12:48.159Z,6.43
2024-03-12T02:15:22.365Z,6.20
2024-03-12T02:17:53.559Z,6.05
2024-03-12T02:20:24.163Z,6.88
2024-03-12T02:22:57.439Z,7.55
2024-03-12T02:25:30.018Z,6.93
2024-03-12T02:28:00.397Z,6.60
2024-03-12T02:30:30.560Z,5.93
2024-03-12T02:33:01.117Z,6.32
2024-03-12T02:35:31.006Z,5.93
2024-03-12T02:38:01.074Z,6.18
2024-03-12T02:40:33.497Z,6.63
2024-03-12T02:45:32.886Z,5.80
2024-03-12T02:48:06.036Z,5.53
2024-03-12T02:50:35.994Z,6.45
2024-03-12T02:53:08.302Z,6.32
2024-03-12T02:55:42.092Z,5.38
2024-03-12T02:58:12.136Z,5.78
2024-03-12T03:00:43.372Z,6.22
2024-03-12T03:03:13.169Z,6.20
2024-03-12T03:05:45.461Z,5.47
2024-03-12T03:08:15.295Z,5.57
2024-03-12T03:10:48.327Z,5.53
2024-03-12T03:13:18.365Z,6.68
2024-03-12T03:15:49.080Z,6.10
2024-03-12T03:18:19.303Z,5.30
2024-03-12T03:20:49.326Z,6.07
2024-03-12T03:23:19.098Z,5.78
2024-03-12T03:25:52.017Z,4.95
2024-03-12T03:28:22.606Z,5.35
2024-03-12T03:30:54.849Z,6.13
2024-03-12T03:33:25.687Z,5.78
2024-03-12T03:35:55.897Z,5.40
2024-03-12T03:38:28.577Z,5.35
2024-03-12T03:41:00.966Z,4.93
2024-03-12T03:43:30.925Z,5.60
2024-03-12T03:46:01.143Z,5.20
2024-03-12T03:48:31.409Z,5.53
2024-03-12T03:51:01.787Z,5.20
2024-03-12T03:53:31.579Z,4.60
2024-03-12T03:56:04.068Z,5.13
2024-03-12T03:58:34.137Z,4.80
2024-03-12T04:01:04.342Z,5.05
2024-03-12T04:03:34.177Z,5.38
2024-03-12T04:06:04.344Z,5.40
2024-03-12T04:08:34.388Z,4.28
2024-03-12T04:11:07.451Z,5.35
2024-03-12T04:13:38.190Z,5.30
2024-03-12T04:16:08.455Z,4.47
2024-03-12T04:18:38.585Z,4.50
2024-03-12T04:21:09.029Z,5.40
2024-03-12T04:23:39.056Z,4.95
2024-03-12T04:26:11.747Z,5.15
2024-03-12T04:28:41.902Z,4.93
2024-03-12T04:31:12.078Z,5.78
2024-03-12T04:33:42.019Z,4.60
2024-03-12T04:36:15.429Z,5.13
2024-03-12T04:38:45.348Z,4.85
2024-03-12T04:41:17.793Z,4.88
2024-03-12T04:43:48.503Z,5.35
2024-03-12T04:46:18.433Z,5.28
2024-03-12T04:48:48.963Z,5.30
2024-03-12T04:51:19.153Z,5.10
2024-03-12T04:53:48.940Z,5.53
2024-03-12T04:56:21.422Z,4.38
2024-03-12T04:58:51.655Z,4.75
2024-03-12T05:01:22.084Z,6.40
2024-03-12T05:03:52.227Z,5.00
2024-03-12T05:06:22.424Z,5.22
2024-03-12T05:08:52.276Z,5.13
2024-03-12T05:11:25.084Z,5.32
2024-03-12T05:13:54.959Z,5.80
2024-03-12T05:16:28.452Z,5.38
2024-03-12T05:18:58.343Z,5.45
2024-03-12T05:21:30.626Z,5.95
2024-03-12T05:24:01.584Z,5.22
2024-03-12T05:26:37.678Z,5.68
2024-03-12T05:29:07.553Z,5.13
2024-03-12T05:31:39.664Z,5.70
2024-03-12T05:34:17.691Z,5.65
2024-03-12T05:36:54.391Z,5.38
2024-03-12T05:39:38.592Z,6.30
2024-03-12T05:42:23.786Z,4.85
2024-03-12T05:45:06.228Z,6.13
2024-03-12T05:47:57.153Z,6.35
2024-03-12T05:50:27.292Z,6.10
2024-03-12T05:52:58.753Z,6.07
2024-03-12T05:55:28.788Z,6.00
2024-03-12T05:58:01.191Z,6.38
2024-03-12T06:00:31.428Z,5.20
2024-03-12T06:03:01.849Z,5.28
2024-03-12T06:05:35.038Z,5.57
2024-03-12T06:08:06.029Z,6.85
2024-03-12T06:10:36.240Z,6.07
2024-03-12T06:13:08.702Z,6.97
2024-03-12T06:15:39.016Z,5.82
2024-03-12T06:18:09.014Z,5.43
2024-03-12T06:20:39.037Z,5.20
2024-03-12T06:23:08.899Z,5.93
2024-03-12T06:25:38.789Z,5.80
2024-03-12T06:28:13.128Z,6.22
2024-03-12T06:30:44.657Z,6.43
2024-03-12T06:33:18.572Z,5.68
2024-03-12T06:35:49.751Z,6.00
2024-03-12T06:38:21.729Z,5.57
2024-03-12T06:43:24.664Z,5.45
2024-03-12T06:45:54.479Z,6.03
2024-03-12T06:48:24.518Z,6.22
2024-03-12T06:50:54.678Z,5.88
2024-03-12T06:53:26.628Z,5.32
2024-03-12T06:55:56.569Z,5.80
2024-03-12T06:58:30.142Z,7.00
2024-03-12T07:01:00.165Z,6.72
2024-03-12T07:03:32.667Z,6.57
2024-03-12T07:06:04.520Z,6.28
2024-03-12T07:08:34.389Z,6.55
2024-03-12T07:11:05.334Z,6.78
2024-03-12T07:13:41.565Z,7.60
2024-03-12T07:16:13.621Z,7.35
2024-03-12T07:21:13.741Z,6.40
2024-03-12T07:23:43.863Z,6.82
2024-03-12T07:26:13.780Z,7.05
2024-03-12T07:28:46.625Z,7.97
2024-03-12T07:31:17.315Z,7.30
2024-03-12T07:33:47.608Z,7.75
2024-03-12T07:36:17.428Z,7.65
2024-03-12T07:38:48.007Z,7.60
2024-03-12T07:41:17.810Z,7.63
2024-03-12T07:43:51.138Z,7.88
2024-03-12T07:46:21.615Z,7.82
2024-03-12T07:48:54.473Z,9.20
2024-03-12T07:51:24.507Z,9.52
2024-03-12T07:53:56.465Z,8.15
2024-03-12T07:56:26.231Z,8.52
2024-03-12T07:58:59.226Z,8.57
2024-03-12T08:01:30.518Z,9.57
2024-03-12T08:04:00.732Z,9.73
2024-03-12T08:06:30.543Z,8.65
2024-03-12T08:09:00.532Z,9.93
2024-03-12T08:11:31.794Z,9.48
2024-03-12T08:14:04.421Z,7.75
2024-03-12T08:16:35.183Z,8.48
2024-03-12T08:19:06.349Z,8.30
2024-03-12T08:21:36.620Z,8.98
2024-03-12T08:24:07.640Z,8.45
2024-03-12T08:26:39.441Z,7.90
2024-03-12T08:29:13.600Z,9.38
2024-03-12T08:31:47.759Z,9.43
2024-03-12T08:34:25.317Z,9.48
2024-03-12T08:36:56.752Z,8.93
2024-03-12T08:39:29.651Z,8.63
2024-03-12T08:41:59.948Z,7.80
2024-03-12T08:44:32.553Z,9.18
2024-03-12T08:47:02.586Z,9.50
2024-03-12T08:49:35.644Z,9.30
2024-03-12T08:52:06.024Z,9.73
2024-03-12T08:54:35.973Z,9.60
2024-03-12T08:57:06.042Z,9.93
2024-03-12T08:59:39.046Z,11.45
2024-03-12T09:02:10.397Z,10.25
2024-03-12T09:04:40.311Z,11.23
2024-03-12T09:07:10.644Z,11.23
2024-03-12T09:09:42.392Z,12.20
2024-03-12T09:12:13.510Z,12.27
2024-03-12T09:14:45.891Z,12.85
2024-03-12T09:17:16.028Z,15.48
2024-03-12T09:19:46.214Z,17.30
2024-03-12T09:22:16.371Z,18.13
2024-03-12T09:24:46.281Z,17.02
2024-03-12T09:27:16.137Z,14.10
2024-03-12T09:29:49.184Z,16.52
2024-03-12T09:32:19.144Z,15.52
2024-03-12T09:34:49.481Z,16.73
2024-03-12T09:37:19.860Z,14.05
2024-03-12T09:39:49.910Z,14.65
2024-03-12T09:42:20.962Z,16.10
2024-03-12T09:44:53.964Z,14.48
2024-03-12T09:47:24.360Z,15.27
2024-03-12T09:49:55.702Z,15.90
2024-03-12T09:52:27.531Z,13.90
2024-03-12T09:54:57.502Z,15.38
2024-03-12T09:57:29.340Z,13.70
2024-03-12T10:00:02.305Z,16.10
2024-03-12T10:02:36.368Z,15.07
2024-03-12T10:05:06.576Z,13.35
2024-03-12T10:07:38.514Z,14.40
2024-03-12T10:10:11.147Z,13.50
2024-03-12T10:12:42.997Z,13.80
2024-03-12T10:15:16.325Z,13.75
2024-03-12T10:18:01.240Z,12.32
2024-03-12T10:20:32.254Z,12.65
2024-03-12T10:23:10.901Z,13.52
2024-03-12T10:25:40.999Z,13.20
2024-03-12T10:28:11.066Z,13.98
2024-03-12T10:30:43.746Z,13.40
2024-03-12T10:33:18.403Z,15.35
2024-03-12T10:35:52.534Z,14.65
2024-03-12T10:38:29.885Z,13.57
2024-03-12T10:40:59.934Z,13.90
2024-03-12T10:43:30.652Z,13.45
2024-03-12T10:46:03.206Z,12.50
2024-03-12T10:48:33.156Z,15.55
2024-03-12T10:51:04.036Z,15.60
2024-03-12T10:53:34.470Z,15.00
2024-03-12T10:56:11.567Z,13.88
2024-03-12T10:58:45.599Z,14.80
2024-03-12T11:01:20.027Z,15.80
2024-03-12T11:03:52.256Z,15.70
2024-03-12T11:06:25.716Z,13.80
2024-03-12T11:08:56.102Z,14.43
2024-03-12T11:11:27.751Z,16.60
2024-03-12T11:14:00.567Z,15.63
2024-03-12T11:16:35.643Z,17.75
2024-03-12T11:19:22.580Z,15.98
2024-03-12T11:21:55.492Z,17.48
2024-03-12T11:24:31.068Z,16.10
2024-03-12T11:27:04.921Z,16.02
2024-03-12T11:30:06.506Z,16.63
2024-03-12T11:32:40.014Z,14.20
2024-03-12T11:35:12.889Z,14.63
2024-03-12T11:37:42.726Z,15.13
2024-03-12T11:40:28.727Z,14.15
2024-03-12T11:42:59.140Z,12.68
2024-03-12T11:45:41.341Z,14.02
2024-03-12T11:48:15.053Z,12.85
2024-03-12T11:50:45.864Z,13.48
2024-03-12T11:53:22.331Z,12.63
2024-03-12T11:56:00.858Z,10.57
2024-03-12T11:58:33.554Z,11.20
2024-03-12T12:01:04.201Z,10.57
2024-03-12T12:03:36.961Z,9.55
2024-03-12T12:06:07.940Z,8.93
2024-03-12T12:08:45.887Z,9.68
2024-03-12T12:11:21.006Z,10.18
2024-03-12T12:13:51.729Z,9.48
2024-03-12T12:16:21.780Z,10.18
2024-03-12T12:18:54.581Z,9.20
2024-03-12T12:21:24.566Z,7.70
2024-03-12T12:23:54.460Z,9.88
2024-03-12T12:26:26.546Z,9.35
2024-03-12T12:31:34.070Z,9.27
2024-03-12T12:34:11.962Z,9.90
2024-03-12T12:36:46.505Z,9.75
2024-03-12T12:39:18.685Z,10.40
2024-03-12T12:41:50.397Z,9.98
2024-03-12T12:44:23.277Z,10.18
2024-03-12T12:46:56.218Z,10.55
2024-03-12T12:49:33.716Z,10.32
2024-03-12T12:52:05.204Z,8.90
2024-03-12T12:54:38.018Z,10.05
2024-03-12T12:57:12.024Z,9.50
2024-03-12T12:59:42.304Z,10.10
2024-03-12T13:02:19.922Z,9.30
2024-03-12T13:04:59.675Z,10.23
2024-03-12T13:07:34.460Z,7.70
2024-03-12T13:10:16.453Z,7.35
2024-03-12T13:12:46.943Z,8.98
2024-03-12T13:15:26.886Z,7.45
2024-03-12T13:17:57.090Z,9.80
2024-03-12T13:20:29.506Z,8.52
2024-03-12T13:22:59.298Z,9.27
2024-03-12T13:25:29.656Z,10.75
2024-03-12T13:28:00.922Z,12.00
2024-03-12T13:30:30.770Z,10.90
2024-03-12T13:33:00.677Z,10.73
2024-03-12T13:35:33.805Z,11.38
2024-03-12T13:38:05.565Z,10.77
2024-03-12T13:40:35.638Z,11.30
2024-03-12T13:43:05.454Z,11.20
2024-03-12T13:45:35.510Z,12.40
2024-03-12T13:48:06.169Z,11.63
2024-03-12T13:50:39.631Z,12.25
2024-03-12T13:53:10.239Z,11.07
2024-03-12T13:55:40.104Z,10.52
2024-03-12T13:58:10.117Z,12.90
2024-03-12T14:00:41.641Z,11.85
2024-03-12T14:03:12.842Z,13.38
2024-03-12T14:05:47.503Z,11.63
2024-03-12T14:08:18.039Z,11.15
2024-03-12T14:10:50.663Z,10.73
2024-03-12T14:13:22.966Z,12.32
2024-03-12T14:15:53.948Z,10.50
2024-03-12T14:18:25.033Z,9.82
2024-03-12T14:20:58.412Z,9.25
2024-03-12T14:23:29.942Z,9.88
2024-03-12T14:25:59.779Z,10.68
2024-03-12T14:28:31.347Z,10.30
2024-03-12T14:31:01.358Z,10.10
2024-03-12T14:33:31.406Z,10.20
2024-03-12T14:36:03.921Z,9.85
2024-03-12T14:38:34.183Z,11.48
2024-03-12T14:41:05.767Z,9.63
2024-03-12T14:43:35.740Z,9.60
2024-03-12T14:46:06.496Z,10.70
2024-03-12T14:48:36.519Z,10.30
2024-03-12T14:51:09.018Z,9.98
2024-03-12T14:53:40.830Z,10.73
2024-03-12T14:56:10.877Z,9.85
2024-03-12T14:58:41.237Z,11.02
2024-03-12T15:01:11.864Z,11.35
2024-03-12T15:03:42.354Z,13.15
2024-03-12T15:06:15.423Z,11.32
2024-03-12T15:08:45.364Z,12.32
2024-03-12T15:11:15.266Z,11.30
2024-03-12T15:13:45.138Z,11.77
2024-03-12T15:16:15.157Z,12.43
2024-03-12T15:18:45.820Z,13.25
2024-03-12T15:21:19.228Z,11.57
2024-03-12T15:23:49.467Z,12.68
2024-03-12T15:26:19.309Z,12.55
2024-03-12T15:28:50.205Z,12.45
2024-03-12T15:31:20.500Z,13.13
2024-03-12T15:33:50.881Z,12.40
2024-03-12T15:36:23.986Z,12.55
2024-03-12T15:38:54.033Z,11.18
2024-03-12T15:41:23.991Z,12.40
2024-03-12T15:43:55.262Z,13.70
2024-03-12T15:46:25.228Z,13.07
2024-03-12T15:48:56.477Z,12.45
2024-03-12T15:51:29.129Z,13.75
2024-03-12T15:53:59.275Z,14.10
2024-03-12T15:56:29.403Z,15.23
2024-03-12T15:58:59.253Z,13.35
2024-03-12T16:01:30.330Z,12.82
2024-03-12T16:04:00.812Z,12.32
2024-03-12T16:06:35.298Z,12.73
2024-03-12T16:09:05.099Z,13.73
2024-03-12T16:11:35.174Z,13.05
2024-03-12T16:14:07.189Z,13.65
2024-03-12T16:16:37.694Z,12.50
2024-03-12T16:19:08.138Z,13.80
2024-03-12T16:21:40.747Z,12.43
2024-03-12T16:24:10.713Z,13.85
2024-03-12T16:26:40.531Z,11.63
2024-03-12T16:29:10.678Z,13.23
2024-03-12T16:31:40.547Z,15.35
2024-03-12T16:34:10.897Z,14.15
2024-03-12T16:36:43.592Z,12.23
2024-03-12T16:39:14.594Z,13.43
2024-03-12T16:41:44.523Z,14.70
2024-03-12T16:44:15.655Z,14.70
2024-03-12T16:46:46.099Z,15.35
2024-03-12T16:49:16.072Z,14.07
2024-03-12T16:51:49.896Z,14.13
2024-03-12T16:54:20.418Z,15.55
2024-03-12T16:56:50.926Z,14.93
2024-03-12T16:59:21.599Z,14.32
2024-03-12T17:01:53.854Z,18.42
2024-03-12T17:04:24.729Z,14.88
2024-03-12T17:07:05.481Z,26.98
2024-03-12T17:09:36.186Z,19.33
2024-03-12T17:12:07.032Z,17.38
2024-03-12T17:14:37.496Z,15.38
2024-03-12T17:17:09.887Z,13.82
2024-03-12T17:22:13.905Z,36.70
2024-03-12T17:24:44.939Z,30.58
2024-03-12T17:27:17.421Z,23.83
2024-03-12T17:29:49.018Z,24.90
2024-03-12T17:32:20.317Z,16.38
2024-03-12T17:34:50.940Z,15.98
2024-03-12T17:37:25.693Z,18.85
2024-03-12T17:40:02.090Z,38.13
2024-03-12T17:42:32.750Z,17.40
2024-03-12T17:45:04.824Z,18.00
2024-03-12T17:47:36.254Z,16.98
2024-03-12T17:50:08.890Z,18.38
2024-03-12T17:52:42.152Z,16.40
2024-03-12T17:55:13.834Z,24.60
2024-03-12T17:57:47.482Z,32.03
2024-03-12T18:00:19.172Z,22.52
2024-03-12T18:02:50.105Z,20.40
2024-03-12T18:05:22.034Z,17.67
2024-03-12T18:07:56.463Z,19.75
2024-03-12T18:10:29.770Z,16.75
2024-03-12T18:13:00.900Z,17.60
2024-03-12T18:15:30.970Z,18.10
2024-03-12T18:18:02.308Z,17.67
2024-03-12T18:20:36.670Z,18.95
2024-03-12T18:23:09.482Z,17.77
2024-03-12T18:25:39.597Z,18.40
2024-03-12T18:28:09.807Z,18.98
2024-03-12T18:30:39.889Z,18.15
2024-03-12T18:33:10.252Z,17.48
2024-03-12T18:35:40.156Z,17.58
2024-03-12T18:38:12.623Z,17.70
2024-03-12T18:40:42.584Z,18.35
2024-03-12T18:43:12.518Z,18.73
2024-03-12T18:45:45.126Z,16.10
2024-03-12T18:48:17.073Z,17.90
2024-03-12T18:50:47.496Z,17.98
2024-03-12T18:53:20.685Z,16.63
2024-03-12T18:55:51.268Z,19.80
2024-03-12T18:58:22.068Z,18.50
2024-03-12T19:00:52.649Z,17.17
2024-03-12T19:03:24.793Z,16.02
2024-03-12T19:05:55.063Z,16.90
2024-03-12T19:08:29.291Z,17.30
2024-03-12T19:10:59.793Z,18.17
2024-03-12T19:13:31.024Z,17.85
2024-03-12T19:16:01.979Z,19.00
2024-03-12T19:18:32.148Z,16.45
2024-03-12T19:21:03.127Z,15.88
2024-03-12T19:23:36.439Z,17.13
2024-03-12T19:26:10.770Z,18.70
2024-03-12T19:28:41.566Z,23.92
2024-03-12T19:31:13.108Z,22.77
2024-03-12T19:33:45.319Z,20.10
2024-03-12T19:38:56.436Z,18.38
2024-03-12T19:41:27.104Z,17.58
2024-03-12T19:43:57.873Z,18.00
2024-03-12T19:46:28.473Z,18.35
2024-03-12T19:48:59.389Z,24.13
2024-03-12T19:51:29.855Z,23.48
2024-03-12T19:54:06.515Z,20.73
2024-03-12T19:56:36.405Z,26.85
2024-03-12T19:59:06.310Z,19.83
2024-03-12T20:01:36.784Z,19.20
2024-03-12T20:04:07.622Z,26.02
2024-03-12T20:06:40.052Z,24.58
2024-03-12T20:09:23.414Z,24.75
2024-03-12T20:11:54.510Z,24.77
2024-03-12T20:14:25.353Z,20.63
2024-03-12T20:16:55.522Z,21.13
2024-03-12T20:19:25.789Z,22.45
2024-03-12T20:21:56.073Z,21.55
2024-03-12T20:24:30.740Z,22.30
2024-03-12T20:27:00.708Z,22.38
2024-03-12T20:29:37.623Z,23.33
2024-03-12T20:32:09.447Z,25.60
2024-03-12T20:34:42.525Z,22.92
2024-03-12T20:37:14.004Z,21.50
2024-03-12T20:39:47.163Z,20.92
2024-03-12T20:42:19.089Z,20.65
2024-03-12T20:44:49.752Z,21.48
2024-03-12T20:47:19.904Z,22.73
2024-03-12T20:49:50.811Z,20.08
2024-03-12T20:52:22.345Z,19.23
2024-03-12T20:54:55.748Z,22.20
2024-03-12T20:57:25.620Z,21.42
2024-03-12T20:59:55.848Z,19.00
2024-03-12T21:02:25.843Z,22.83
2024-03-12T21:04:55.673Z,18.63
2024-03-12T21:07:26.085Z,19.85
2024-03-12T21:09:59.772Z,22.70
2024-03-12T21:12:30.871Z,20.77
2024-03-12T21:15:00.796Z,18.52
2024-03-12T21:17:31.461Z,18.60
2024-03-12T21:20:01.745Z,21.02
2024-03-12T21:22:31.577Z,19.65
2024-03-12T21:25:06.668Z,21.85
2024-03-12T21:27:36.736Z,19.60
2024-03-12T21:30:09.928Z,19.90
2024-03-12T21:32:39.903Z,20.85
2024-03-12T21:35:10.608Z,20.05
2024-03-12T21:37:40.729Z,21.67
2024-03-12T21:40:14.821Z,19.50
2024-03-12T21:42:46.091Z,19.65
2024-03-12T21:45:19.376Z,19.13
2024-03-12T21:47:49.645Z,18.98
2024-03-12T21:50:20.147Z,20.60
2024-03-12T21:52:50.263Z,19.25
2024-03-12T21:55:27.081Z,18.73
2024-03-12T21:57:57.160Z,18.80
2024-03-12T22:00:27.786Z,21.92
2024-03-12T22:02:59.035Z,19.77
2024-03-12T22:05:30.498Z,22.10
2024-03-12T22:08:00.551Z,20.25
2024-03-12T22:10:33.278Z,19.90
2024-03-12T22:13:03.366Z,21.65
2024-03-12T22:15:33.575Z,21.30
2024-03-12T22:18:03.528Z,20.23
2024-03-12T22:20:33.512Z,20.65
2024-03-12T22:23:03.582Z,19.02
2024-03-12T22:25:36.792Z,19.70
2024-03-12T22:28:07.181Z,20.35
2024-03-12T22:30:38.551Z,21.70
2024-03-12T22:33:09.289Z,22.13
2024-03-12T22:35:39.130Z,20.17
2024-03-12T22:38:10.198Z,23.02
2024-03-12T22:40:43.906Z,20.88
2024-03-12T22:43:14.626Z,21.52
2024-03-12T22:45:45.833Z,19.02
2024-03-12T22:48:16.251Z,22.25
2024-03-12T22:50:47.670Z,17.98
2024-03-12T22:53:19.045Z,20.10
2024-03-12T22:55:51.889Z,20.92
2024-03-12T22:58:22.536Z,19.48
2024-03-12T23:00:55.547Z,20.80
2024-03-12T23:03:26.299Z,19.13
2024-03-12T23:05:56.930Z,18.65
2024-03-12T23:08:30.344Z,17.38
2024-03-12T23:11:02.826Z,20.70
2024-03-12T23:13:33.336Z,17.60
2024-03-12T23:16:03.510Z,18.25
2024-03-12T23:18:33.551Z,18.58
2024-03-12T23:21:03.614Z,19.35
2024-03-12T23:23:34.108Z,18.48
2024-03-12T23:26:07.141Z,17.15
2024-03-12T23:28:36.975Z,18.15
2024-03-12T23:31:07.590Z,17.60
2024-03-12T23:33:41.045Z,18.13
2024-03-12T23:36:11.360Z,17.75
2024-03-12T23:38:41.275Z,18.10
2024-03-12T23:41:14.166Z,19.90
2024-03-12T23:43:47.751Z,19.92
2024-03-12T23:46:18.309Z,20.92
2024-03-12T23:48:48.272Z,17.92
2024-03-12T23:51:18.641Z,19.38
2024-03-12T23:53:48.740Z,20.20
2024-03-12T23:56:22.480Z,20.38
2024-03-12T23:58:52.406Z,22.13
